Time;durP1;ratioP1;P1;durP2;ratioP2;P2;SDS_P1;SDS_P2;PMS_P1;PMS_P2;Temp;Humidity;BMP_temperature;BMP_pressure;BME280_temperature;BME280_humidity;BME280_pressure;Samples;Min_cycle;Max_cycle;Signal;HPM_P1;HPM_P2
2021/09/27 00:02:02;;;;;;;30.95;22.85;;;;;;;;;;5035417;28;20540;-61
2021/09/27 00:04:28;;;;;;;29.15;19.92;;;;;;;;;;5035408;28;20021;-61
2021/09/27 00:06:54;;;;;;;29.08;19.33;;;;;;;;;;5034031;28;20025;-61
2021/09/27 00:09:20;;;;;;;29.77;20.63;;;;;;;;;;5033763;28;20021;-59
2021/09/27 00:11:46;;;;;;;32.72;22.80;;;;;;;;;;5035234;28;20109;-61
2021/09/27 00:14:12;;;;;;;29.05;21.13;;;;;;;;;;5033932;28;20029;-60
2021/09/27 00:16:38;;;;;;;29.75;20.83;;;;;;;;;;5035300;28;20022;-63
2021/09/27 00:19:04;;;;;;;28.90;21.13;;;;;;;;;;5033497;28;20026;-61
2021/09/27 00:21:33;;;;;;;30.38;22.10;;;;;;;;;;5034865;28;20507;-61
2021/09/27 00:23:59;;;;;;;34.55;25.73;;;;;;;;;;5034977;28;20052;-61
2021/09/27 00:26:26;;;;;;;30.73;20.20;;;;;;;;;;5033511;28;20474;-61
2021/09/27 00:28:52;;;;;;;29.77;20.88;;;;;;;;;;5034536;28;20067;-63
2021/09/27 00:31:18;;;;;;;31.88;20.33;;;;;;;;;;5034727;28;20088;-61
2021/09/27 00:33:45;;;;;;;31.75;20.73;;;;;;;;;;5033525;28;20018;-61
2021/09/27 00:36:11;;;;;;;26.85;19.50;;;;;;;;;;5033402;28;20024;-61
2021/09/27 00:38:37;;;;;;;28.00;19.40;;;;;;;;;;5034397;28;20026;-61
2021/09/27 00:41:04;;;;;;;30.52;20.95;;;;;;;;;;5034908;28;20035;-63
2021/09/27 00:43:32;;;;;;;28.25;20.13;;;;;;;;;;5034852;28;20080;-63
2021/09/27 00:46:00;;;;;;;28.85;19.35;;;;;;;;;;5033522;28;20026;-63
2021/09/27 00:48:26;;;;;;;29.45;19.85;;;;;;;;;;5034437;28;20027;-61
2021/09/27 00:50:55;;;;;;;31.48;20.13;;;;;;;;;;5034221;28;20033;-65
2021/09/27 00:53:21;;;;;;;;;;;;;;;;;;5033855;28;20624;-61
2021/09/27 00:55:47;;;;;;;31.30;20.65;;;;;;;;;;5034422;28;19905;-63
2021/09/27 00:58:14;;;;;;;35.53;20.67;;;;;;;;;;5032747;28;20022;-64
2021/09/27 01:00:40;;;;;;;28.33;21.02;;;;;;;;;;5034156;28;20026;-63
2021/09/27 01:03:05;;;;;;;31.65;21.80;;;;;;;;;;5033106;28;20048;-60
2021/09/27 01:05:33;;;;;;;34.22;24.05;;;;;;;;;;5033864;28;20024;-59
2021/09/27 01:08:09;;;;;;;33.75;24.77;;;;;;;;;;5032622;28;20408;-64
2021/09/27 01:10:38;;;;;;;36.60;25.45;;;;;;;;;;5033850;28;20110;-62
2021/09/27 01:13:04;;;;;;;32.42;23.58;;;;;;;;;;5034053;28;20068;-64
2021/09/27 01:15:35;;;;;;;33.67;24.05;;;;;;;;;;5034043;28;20022;-63
2021/09/27 01:18:11;;;;;;;36.33;24.48;;;;;;;;;;5033898;28;20037;-60
2021/09/27 01:20:43;;;;;;;33.72;25.67;;;;;;;;;;5050357;22;20048;-62
2021/09/27 01:23:28;;;;;;;34.95;26.02;;;;;;;;;;4991035;28;20038;-63
2021/09/27 01:26:12;;;;;;;32.60;24.02;;;;;;;;;;4991184;28;20101;-64
2021/09/27 01:28:57;;;;;;;33.95;24.58;;;;;;;;;;4973220;28;20450;-63
2021/09/27 01:31:32;;;;;;;37.67;26.05;;;;;;;;;;4973718;28;20075;-64
2021/09/27 01:34:11;;;;;;;36.38;25.80;;;;;;;;;;4991038;28;20520;-63
2021/09/27 01:36:50;;;;;;;33.42;23.98;;;;;;;;;;4973841;28;20091;-64
2021/09/27 01:39:22;;;;;;;34.92;21.75;;;;;;;;;;4990083;28;20390;-64
2021/09/27 01:41:55;;;;;;;38.97;24.15;;;;;;;;;;4973168;28;20406;-63
2021/09/27 01:44:35;;;;;;;31.50;23.08;;;;;;;;;;4989910;28;20482;-64
2021/09/27 01:47:21;;;;;;;32.63;24.48;;;;;;;;;;4972416;28;20105;-64
2021/09/27 01:50:05;;;;;;;33.25;24.20;;;;;;;;;;4989249;28;20130;-62
2021/09/27 01:52:36;;;;;;;41.05;32.40;;;;;;;;;;4989757;28;20022;-64
2021/09/27 01:55:06;;;;;;;38.85;27.20;;;;;;;;;;4989731;28;20109;-64
2021/09/27 01:57:38;;;;;;;50.53;36.72;;;;;;;;;;4989725;28;20030;-64
2021/09/27 02:00:13;;;;;;;35.00;25.10;;;;;;;;;;4972000;28;20036;-63
2021/09/27 02:02:58;;;;;;;40.00;29.75;;;;;;;;;;4989730;28;20058;-64
2021/09/27 02:05:32;;;;;;;35.97;25.55;;;;;;;;;;4989565;28;20026;-63
2021/09/27 02:08:02;;;;;;;34.15;24.10;;;;;;;;;;4989540;28;20041;-64
2021/09/27 02:10:49;;;;;;;36.33;26.38;;;;;;;;;;4971924;28;20031;-64
2021/09/27 02:13:21;;;;;;;34.00;24.67;;;;;;;;;;4972145;28;20054;-63
2021/09/27 02:16:05;;;;;;;37.80;26.75;;;;;;;;;;4971457;28;20557;-64
2021/09/27 02:18:34;;;;;;;38.42;29.08;;;;;;;;;;4971818;28;20408;-63
2021/09/27 02:21:06;;;;;;;34.60;25.27;;;;;;;;;;4971671;28;20030;-64
2021/09/27 02:23:41;;;;;;;32.70;24.25;;;;;;;;;;4989650;28;20169;-63
2021/09/27 02:26:07;;;;;;;41.60;27.08;;;;;;;;;;4989308;28;20030;-64
2021/09/27 02:28:33;;;;;;;40.72;28.73;;;;;;;;;;4971518;28;20536;-63
2021/09/27 02:31:06;;;;;;;38.38;27.13;;;;;;;;;;4971722;28;20029;-64
2021/09/27 02:33:38;;;;;;;37.30;27.42;;;;;;;;;;4971504;28;20037;-64
2021/09/27 02:36:04;;;;;;;33.72;25.60;;;;;;;;;;4988954;28;20066;-64
2021/09/27 02:38:41;;;;;;;34.70;25.85;;;;;;;;;;4971582;28;20606;-63
2021/09/27 02:41:09;;;;;;;42.28;27.42;;;;;;;;;;4989008;28;20046;-63
2021/09/27 02:43:35;;;;;;;34.85;26.10;;;;;;;;;;4971542;28;20034;-62
2021/09/27 02:46:02;;;;;;;35.65;25.80;;;;;;;;;;4971691;28;20037;-64
2021/09/27 02:48:40;;;;;;;37.60;25.42;;;;;;;;;;4988711;28;20265;-63
2021/09/27 02:51:06;;;;;;;38.50;26.52;;;;;;;;;;4971376;28;20025;-64
2021/09/27 02:53:33;;;;;;;42.92;31.52;;;;;;;;;;4989074;28;20037;-63
2021/09/27 02:56:05;;;;;;;38.33;25.02;;;;;;;;;;4988816;28;20115;-65
2021/09/27 02:58:31;;;;;;;34.75;24.13;;;;;;;;;;4971063;28;20026;-63
2021/09/27 03:01:01;;;;;;;38.20;28.33;;;;;;;;;;4988787;28;20018;-64
2021/09/27 03:03:32;;;;;;;38.42;25.77;;;;;;;;;;4971586;28;20026;-63
2021/09/27 03:06:22;;;;;;;40.53;30.77;;;;;;;;;;4988935;28;20026;-63
2021/09/27 03:09:06;;;;;;;35.67;26.33;;;;;;;;;;4988644;28;20038;-63
2021/09/27 03:11:44;;;;;;;39.47;29.92;;;;;;;;;;4988595;28;20025;-64
2021/09/27 03:14:28;;;;;;;38.10;25.98;;;;;;;;;;4971179;28;20505;-63
2021/09/27 03:17:00;;;;;;;37.97;24.42;;;;;;;;;;4971177;28;20035;-63
2021/09/27 03:19:33;;;;;;;32.70;22.00;;;;;;;;;;4988269;28;20517;-63
2021/09/27 03:22:05;;;;;;;35.90;23.70;;;;;;;;;;4988349;28;20525;-64
2021/09/27 03:24:39;;;;;;;32.22;22.63;;;;;;;;;;4988506;28;20045;-64
2021/09/27 03:27:24;;;;;;;34.08;25.33;;;;;;;;;;4970846;28;20065;-61
2021/09/27 03:30:08;;;;;;;38.95;27.52;;;;;;;;;;4991307;28;20060;-63
2021/09/27 03:32:51;;;;;;;38.05;25.60;;;;;;;;;;4974413;28;20027;-64
2021/09/27 03:35:36;;;;;;;37.17;27.13;;;;;;;;;;4991853;28;20030;-64
2021/09/27 03:38:11;;;;;;;33.97;23.90;;;;;;;;;;4974461;28;20034;-64
2021/09/27 03:40:42;;;;;;;35.10;23.35;;;;;;;;;;4991738;28;20087;-64
2021/09/27 03:43:08;;;;;;;32.92;22.77;;;;;;;;;;4991840;28;20101;-64
2021/09/27 03:45:34;;;;;;;31.55;21.15;;;;;;;;;;4992230;28;20090;-63
2021/09/27 03:48:05;;;;;;;34.17;23.20;;;;;;;;;;4991970;28;20119;-64
2021/09/27 03:50:44;;;;;;;31.85;21.13;;;;;;;;;;4974149;28;20431;-64
2021/09/27 03:53:33;;;;;;;30.23;20.80;;;;;;;;;;4991466;28;20034;-64
2021/09/27 03:56:11;;;;;;;27.65;19.30;;;;;;;;;;4976723;28;20204;-64
2021/09/27 03:58:47;;;;;;;28.17;18.90;;;;;;;;;;4991245;28;20019;-63
2021/09/27 04:01:22;;;;;;;28.25;18.98;;;;;;;;;;4991406;28;20062;-63
2021/09/27 04:04:00;;;;;;;28.90;19.38;;;;;;;;;;4991660;28;20029;-64
2021/09/27 04:06:45;;;;;;;29.58;19.65;;;;;;;;;;4991932;28;20027;-65
2021/09/27 04:09:20;;;;;;;31.73;20.63;;;;;;;;;;4991604;28;20022;-64
2021/09/27 04:11:56;;;;;;;34.28;21.75;;;;;;;;;;4974278;28;20030;-63
2021/09/27 04:14:57;;;;;;;30.80;20.23;;;;;;;;;;4974299;28;20678;-63
2021/09/27 04:17:42;;;;;;;30.33;21.48;;;;;;;;;;4992120;28;20093;-64
2021/09/27 04:20:13;;;;;;;30.90;19.95;;;;;;;;;;4975231;28;20043;-63
2021/09/27 04:22:40;;;;;;;29.30;19.75;;;;;;;;;;4991099;28;20042;-64
2021/09/27 04:25:10;;;;;;;31.05;19.33;;;;;;;;;;4973787;28;20453;-66
2021/09/27 04:27:55;;;;;;;29.63;19.70;;;;;;;;;;4973720;28;20396;-63
2021/09/27 04:30:30;;;;;;;30.70;20.95;;;;;;;;;;4990752;28;20041;-63
2021/09/27 04:33:19;;;;;;;29.38;19.58;;;;;;;;;;4991030;28;20055;-64
2021/09/27 04:36:02;;;;;;;28.48;19.75;;;;;;;;;;4973258;28;20022;-64
2021/09/27 04:38:29;;;;;;;30.45;19.48;;;;;;;;;;4972858;28;20038;-64
2021/09/27 04:41:01;;;;;;;27.25;17.33;;;;;;;;;;4973802;28;20469;-62
2021/09/27 04:43:32;;;;;;;29.13;18.55;;;;;;;;;;4990784;28;20041;-64
2021/09/27 04:46:12;;;;;;;28.63;19.17;;;;;;;;;;4973564;28;20026;-63
2021/09/27 04:49:17;;;;;;;32.70;17.95;;;;;;;;;;4973019;28;20159;-62
2021/09/27 04:51:48;;;;;;;27.80;17.50;;;;;;;;;;4991245;28;20030;-63
2021/09/27 04:54:17;;;;;;;28.70;19.17;;;;;;;;;;4991370;28;20022;-63
2021/09/27 04:56:58;;;;;;;28.60;18.98;;;;;;;;;;4990736;28;20053;-62
2021/09/27 04:59:27;;;;;;;28.67;18.88;;;;;;;;;;4978322;28;20118;-62
2021/09/27 05:02:09;;;;;;;32.92;19.02;;;;;;;;;;5025850;28;20125;-63
2021/09/27 05:04:48;;;;;;;30.27;20.55;;;;;;;;;;4970852;28;20027;-63
2021/09/27 05:07:14;;;;;;;28.83;18.98;;;;;;;;;;4960369;28;20039;-63
2021/09/27 05:09:46;;;;;;;28.70;18.77;;;;;;;;;;4988394;28;20470;-63
2021/09/27 05:12:18;;;;;;;33.47;19.88;;;;;;;;;;4989914;28;20030;-64
2021/09/27 05:14:44;;;;;;;29.27;19.42;;;;;;;;;;4988881;28;20023;-63
2021/09/27 05:17:20;;;;;;;27.80;18.20;;;;;;;;;;4971576;28;20033;-63
2021/09/27 05:20:05;;;;;;;27.88;18.75;;;;;;;;;;4953253;28;20125;-63
2021/09/27 05:22:49;;;;;;;26.08;17.52;;;;;;;;;;4970446;28;20459;-63
2021/09/27 05:25:21;;;;;;;28.83;18.13;;;;;;;;;;4970492;28;20035;-63
2021/09/27 05:28:06;;;;;;;26.60;17.73;;;;;;;;;;4970203;28;20054;-62
2021/09/27 05:30:51;;;;;;;27.27;16.63;;;;;;;;;;4952460;28;20019;-64
2021/09/27 05:33:43;;;;;;;27.73;17.20;;;;;;;;;;4981052;28;20095;-64
2021/09/27 05:36:16;;;;;;;27.98;16.98;;;;;;;;;;4986007;28;20046;-64
2021/09/27 05:38:51;;;;;;;25.83;16.33;;;;;;;;;;4989262;28;20103;-63
2021/09/27 05:41:36;;;;;;;25.48;17.13;;;;;;;;;;4989537;28;20390;-64
2021/09/27 05:44:18;;;;;;;27.67;16.58;;;;;;;;;;4989498;28;20023;-63
2021/09/27 05:46:44;;;;;;;26.63;16.50;;;;;;;;;;4989322;28;20081;-61
2021/09/27 05:49:19;;;;;;;26.50;15.80;;;;;;;;;;4989283;28;20027;-64
2021/09/27 05:51:49;;;;;;;25.40;15.48;;;;;;;;;;4987183;28;20023;-65
2021/09/27 05:54:24;;;;;;;29.15;17.75;;;;;;;;;;4989355;28;20038;-64
2021/09/27 05:56:53;;;;;;;27.25;16.90;;;;;;;;;;4989497;28;20080;-64
2021/09/27 05:59:30;;;;;;;24.63;15.82;;;;;;;;;;4988950;28;20038;-64
2021/09/27 06:02:05;;;;;;;27.88;16.27;;;;;;;;;;4989524;28;20049;-64
2021/09/27 06:04:50;;;;;;;25.42;15.73;;;;;;;;;;4971709;28;20056;-61
2021/09/27 06:07:34;;;;;;;25.10;15.70;;;;;;;;;;4989192;28;20057;-62
2021/09/27 06:10:16;;;;;;;23.45;14.23;;;;;;;;;;4989063;28;20025;-63
2021/09/27 06:13:01;;;;;;;27.80;15.07;;;;;;;;;;4988680;28;20448;-64
2021/09/27 06:15:32;;;;;;;23.92;15.35;;;;;;;;;;4971447;28;20109;-64
2021/09/27 06:18:19;;;;;;;24.23;15.35;;;;;;;;;;4988804;28;20026;-63
2021/09/27 06:21:03;;;;;;;23.50;14.93;;;;;;;;;;4974277;28;20042;-63
2021/09/27 06:23:32;;;;;;;29.40;16.15;;;;;;;;;;4988538;28;20046;-64
2021/09/27 06:26:04;;;;;;;26.73;15.25;;;;;;;;;;4989751;28;20027;-64
2021/09/27 06:28:49;;;;;;;29.50;17.58;;;;;;;;;;4988580;28;20105;-64
2021/09/27 06:31:15;;;;;;;25.42;16.42;;;;;;;;;;4988960;28;20034;-64
2021/09/27 06:33:53;;;;;;;25.90;16.35;;;;;;;;;;4988881;28;20029;-64
2021/09/27 06:36:24;;;;;;;25.08;15.30;;;;;;;;;;4988809;28;20026;-64
2021/09/27 06:38:55;;;;;;;25.48;14.95;;;;;;;;;;4987000;28;20179;-64
2021/09/27 06:41:23;;;;;;;25.40;16.15;;;;;;;;;;4987006;28;20113;-65
2021/09/27 06:43:49;;;;;;;27.40;15.70;;;;;;;;;;4988677;28;20046;-65
2021/09/27 06:46:16;;;;;;;26.90;16.58;;;;;;;;;;4988375;28;20026;-64
2021/09/27 06:48:42;;;;;;;26.60;17.15;;;;;;;;;;4986756;28;20049;-63
2021/09/27 06:51:07;;;;;;;24.60;16.08;;;;;;;;;;4988678;28;20450;-64
2021/09/27 06:53:34;;;;;;;26.80;14.88;;;;;;;;;;4988168;28;20055;-64
2021/09/27 06:56:00;;;;;;;24.60;15.68;;;;;;;;;;4987089;28;20122;-65
2021/09/27 06:58:26;;;;;;;24.55;15.52;;;;;;;;;;4986760;28;20055;-63
2021/09/27 07:00:54;;;;;;;26.25;16.65;;;;;;;;;;4988280;28;20087;-64
2021/09/27 07:03:20;;;;;;;25.45;15.93;;;;;;;;;;4988097;28;20026;-64
2021/09/27 07:05:46;;;;;;;24.60;15.52;;;;;;;;;;4988141;28;20152;-64
2021/09/27 07:08:12;;;;;;;30.75;16.98;;;;;;;;;;4970195;28;20030;-65
2021/09/27 07:10:38;;;;;;;24.40;14.40;;;;;;;;;;4988204;28;20519;-64
2021/09/27 07:13:05;;;;;;;24.38;14.93;;;;;;;;;;4987941;28;20216;-64
2021/09/27 07:15:31;;;;;;;23.13;14.27;;;;;;;;;;4970825;28;20394;-69
2021/09/27 07:17:57;;;;;;;23.80;13.27;;;;;;;;;;4987954;28;20445;-66
2021/09/27 07:20:25;;;;;;;24.23;13.55;;;;;;;;;;4970157;28;20121;-66
2021/09/27 07:22:51;;;;;;;;;;;;;;;;;;4962426;23;20063;-59
2021/09/27 07:25:18;;;;;;;24.98;13.55;;;;;;;;;;4946277;28;19907;-61
2021/09/27 07:27:44;;;;;;;22.67;12.82;;;;;;;;;;4946318;28;20038;-59
2021/09/27 07:30:11;;;;;;;23.27;14.23;;;;;;;;;;4946276;28;20515;-59
2021/09/27 07:32:38;;;;;;;26.25;13.45;;;;;;;;;;4931731;29;20073;-57
2021/09/27 07:35:05;;;;;;;21.70;13.85;;;;;;;;;;4930601;28;20020;-61
2021/09/27 07:37:31;;;;;;;25.08;14.60;;;;;;;;;;4930640;28;20464;-61
2021/09/27 07:39:58;;;;;;;24.58;13.50;;;;;;;;;;4931879;29;20034;-62
2021/09/27 07:42:24;;;;;;;22.83;13.75;;;;;;;;;;4930549;28;20027;-60
2021/09/27 07:44:50;;;;;;;21.05;13.43;;;;;;;;;;4931602;29;20386;-62
2021/09/27 07:47:15;;;;;;;22.52;12.88;;;;;;;;;;4931557;29;20027;-62
2021/09/27 07:49:42;;;;;;;22.10;12.80;;;;;;;;;;4930949;29;20380;-62
2021/09/27 07:52:08;;;;;;;26.35;13.00;;;;;;;;;;4930007;28;20020;-60
2021/09/27 07:54:34;;;;;;;22.38;13.05;;;;;;;;;;4930150;28;20642;-62
2021/09/27 07:57:00;;;;;;;21.55;13.68;;;;;;;;;;4930091;28;20066;-62
2021/09/27 07:59:26;;;;;;;20.77;12.50;;;;;;;;;;4931021;29;20035;-61
2021/09/27 08:01:52;;;;;;;20.35;12.57;;;;;;;;;;4931011;29;20057;-62
2021/09/27 08:04:19;;;;;;;21.27;13.45;;;;;;;;;;4930039;28;20491;-61
2021/09/27 08:06:45;;;;;;;24.85;13.88;;;;;;;;;;4931028;28;20504;-62
2021/09/27 08:09:11;;;;;;;21.65;13.23;;;;;;;;;;4929520;28;20059;-63
2021/09/27 08:11:40;;;;;;;20.65;12.77;;;;;;;;;;4927244;28;20035;-61
2021/09/27 08:14:07;;;;;;;22.83;13.07;;;;;;;;;;4920399;29;20480;-61
2021/09/27 08:16:33;;;;;;;22.58;13.82;;;;;;;;;;4922384;28;20032;-58
2021/09/27 08:18:59;;;;;;;21.30;13.95;;;;;;;;;;4933908;29;20039;-57
2021/09/27 08:21:25;;;;;;;25.20;14.30;;;;;;;;;;4933613;29;20446;-55
2021/09/27 08:23:51;;;;;;;23.45;12.70;;;;;;;;;;4933960;29;20036;-59
2021/09/27 08:26:18;;;;;;;26.60;14.73;;;;;;;;;;4933814;29;20027;-60
2021/09/27 08:28:44;;;;;;;28.70;15.98;;;;;;;;;;4932645;29;20074;-66
2021/09/27 08:31:12;;;;;;;23.65;14.20;;;;;;;;;;4934055;29;20039;-58
2021/09/27 08:33:38;;;;;;;22.53;14.43;;;;;;;;;;4934033;29;20031;-56
2021/09/27 08:36:06;;;;;;;22.90;13.95;;;;;;;;;;4932542;29;20032;-59
2021/09/27 08:38:37;;;;;;;21.65;13.95;;;;;;;;;;4932352;29;20039;-59
2021/09/27 08:41:09;;;;;;;20.52;12.90;;;;;;;;;;4934009;29;20078;-57
2021/09/27 08:43:54;;;;;;;23.17;13.10;;;;;;;;;;4926090;29;20024;-59
2021/09/27 08:46:43;;;;;;;23.48;14.07;;;;;;;;;;4918713;28;20028;-59
2021/09/27 08:49:14;;;;;;;21.80;14.52;;;;;;;;;;4919259;28;20033;-61
2021/09/27 08:51:41;;;;;;;22.52;13.30;;;;;;;;;;4914770;29;20028;-58
2021/09/27 08:54:12;;;;;;;21.95;13.68;;;;;;;;;;4911820;28;20427;-62
2021/09/27 08:57:06;;;;;;;21.95;14.90;;;;;;;;;;4913233;29;20029;-59
2021/09/27 08:59:41;;;;;;;22.80;14.35;;;;;;;;;;4913761;28;20043;-59
2021/09/27 09:02:26;;;;;;;24.17;13.98;;;;;;;;;;4917979;28;20131;-59
2021/09/27 09:05:08;;;;;;;21.83;14.70;;;;;;;;;;4923494;28;20036;-59
2021/09/27 09:07:37;;;;;;;23.25;14.38;;;;;;;;;;4923251;29;20480;-59
2021/09/27 09:10:06;;;;;;;23.27;14.85;;;;;;;;;;4923462;29;20028;-62
2021/09/27 09:12:34;;;;;;;23.13;14.38;;;;;;;;;;4922149;29;20107;-60
2021/09/27 09:15:00;;;;;;;23.35;14.85;;;;;;;;;;4923669;29;20024;-53
2021/09/27 09:17:46;;;;;;;21.67;14.48;;;;;;;;;;4924509;29;20107;-57
2021/09/27 09:20:19;;;;;;;20.92;14.38;;;;;;;;;;4924091;29;20031;-59
2021/09/27 09:22:46;;;;;;;22.10;15.07;;;;;;;;;;4922903;29;20119;-57
2021/09/27 09:25:25;;;;;;;22.90;15.40;;;;;;;;;;4919775;29;20078;-59
2021/09/27 09:27:51;;;;;;;23.40;14.93;;;;;;;;;;4914437;29;20444;-61
2021/09/27 09:30:18;;;;;;;21.58;14.73;;;;;;;;;;4913035;28;20361;-58
2021/09/27 09:32:44;;;;;;;22.70;16.48;;;;;;;;;;4914120;29;20028;-58
2021/09/27 09:35:13;;;;;;;22.75;15.23;;;;;;;;;;4914136;29;20027;-60
2021/09/27 09:37:41;;;;;;;22.30;15.50;;;;;;;;;;4913160;28;20031;-60
2021/09/27 09:40:17;;;;;;;21.23;14.50;;;;;;;;;;4913617;29;20028;-59
2021/09/27 09:42:56;;;;;;;24.17;15.20;;;;;;;;;;4913846;29;20402;-60
2021/09/27 09:45:26;;;;;;;21.15;15.18;;;;;;;;;;4912628;28;20549;-60
2021/09/27 09:47:52;;;;;;;21.13;14.88;;;;;;;;;;4914116;29;20040;-57
2021/09/27 09:50:21;;;;;;;20.23;13.70;;;;;;;;;;4911888;28;20400;-60
2021/09/27 09:52:49;;;;;;;20.92;14.60;;;;;;;;;;4913579;29;20026;-61
2021/09/27 09:55:24;;;;;;;23.27;15.23;;;;;;;;;;4911990;28;20028;-64
2021/09/27 09:58:09;;;;;;;21.83;15.05;;;;;;;;;;4912243;28;20312;-63
2021/09/27 10:00:44;;;;;;;22.02;14.35;;;;;;;;;;4921452;29;20023;-63
2021/09/27 10:03:16;;;;;;;20.50;14.95;;;;;;;;;;4930588;28;20059;-62
2021/09/27 10:05:44;;;;;;;20.20;14.63;;;;;;;;;;4931050;28;20043;-63
2021/09/27 10:08:16;;;;;;;21.77;14.82;;;;;;;;;;4930818;28;20043;-58
2021/09/27 10:10:43;;;;;;;19.95;14.10;;;;;;;;;;4932798;28;20063;-63
2021/09/27 10:13:24;;;;;;;21.13;14.00;;;;;;;;;;4932187;28;20111;-61
2021/09/27 10:15:50;;;;;;;19.73;14.23;;;;;;;;;;4930768;28;20516;-62
2021/09/27 10:18:25;;;;;;;21.45;13.52;;;;;;;;;;4931007;28;20442;-64
2021/09/27 10:21:04;;;;;;;20.75;14.02;;;;;;;;;;4930988;28;20407;-63
2021/09/27 10:23:31;;;;;;;21.33;14.45;;;;;;;;;;4932422;28;20043;-62
2021/09/27 10:26:09;;;;;;;20.67;13.67;;;;;;;;;;4932449;28;20496;-61
2021/09/27 10:28:37;;;;;;;21.02;13.57;;;;;;;;;;4931054;28;20286;-54
2021/09/27 10:31:03;;;;;;;20.08;13.32;;;;;;;;;;4932357;28;20317;-60
2021/09/27 10:33:32;;;;;;;18.70;13.45;;;;;;;;;;4932234;28;20094;-58
2021/09/27 10:36:00;;;;;;;22.05;14.55;;;;;;;;;;4931075;28;20676;-63
2021/09/27 10:38:28;;;;;;;20.48;14.15;;;;;;;;;;4931177;28;20073;-63
2021/09/27 10:40:55;;;;;;;19.90;14.23;;;;;;;;;;4930491;28;20028;-61
2021/09/27 10:43:23;;;;;;;22.38;13.82;;;;;;;;;;4932020;28;20027;-64
2021/09/27 10:45:51;;;;;;;20.35;13.23;;;;;;;;;;4915225;28;20088;-61
2021/09/27 10:48:17;;;;;;;;;;;;;;;;;;4932246;28;20036;-63
2021/09/27 10:50:45;;;;;;;20.08;13.65;;;;;;;;;;4931982;28;19913;-65
2021/09/27 10:53:22;;;;;;;18.85;13.77;;;;;;;;;;4931817;28;20026;-61
2021/09/27 10:56:08;;;;;;;19.75;13.98;;;;;;;;;;4930776;28;20078;-58
2021/09/27 10:58:34;;;;;;;18.98;13.68;;;;;;;;;;4930319;28;20119;-61
2021/09/27 11:01:00;;;;;;;18.77;13.77;;;;;;;;;;4930554;28;20460;-63
2021/09/27 11:03:38;;;;;;;17.67;12.50;;;;;;;;;;4930505;28;20031;-62
2021/09/27 11:06:22;;;;;;;18.95;13.30;;;;;;;;;;4932010;28;20095;-61
2021/09/27 11:08:48;;;;;;;19.42;13.02;;;;;;;;;;4929868;28;20032;-62
2021/09/27 11:11:37;;;;;;;18.90;12.40;;;;;;;;;;4930377;28;20024;-61
2021/09/27 11:14:23;;;;;;;20.95;13.52;;;;;;;;;;4913869;28;20515;-60
2021/09/27 11:16:54;;;;;;;18.50;12.82;;;;;;;;;;4930563;28;20028;-61
2021/09/27 11:19:29;;;;;;;17.65;12.93;;;;;;;;;;4931531;28;20464;-65
2021/09/27 11:21:56;;;;;;;18.60;12.25;;;;;;;;;;4931652;28;20054;-62
2021/09/27 11:24:22;;;;;;;18.40;12.80;;;;;;;;;;4930460;28;20031;-61
2021/09/27 11:26:57;;;;;;;18.13;12.50;;;;;;;;;;4931689;28;20082;-62
2021/09/27 11:29:23;;;;;;;18.65;12.30;;;;;;;;;;4930351;28;20093;-64
2021/09/27 11:32:09;;;;;;;17.75;12.75;;;;;;;;;;4931500;28;20416;-63
2021/09/27 11:34:38;;;;;;;18.67;13.07;;;;;;;;;;4931549;28;20106;-61
2021/09/27 11:37:12;;;;;;;17.98;13.02;;;;;;;;;;4931489;28;20035;-62
2021/09/27 11:39:47;;;;;;;19.02;13.68;;;;;;;;;;4930270;28;20391;-63
2021/09/27 11:42:19;;;;;;;17.70;12.50;;;;;;;;;;4929968;28;20034;-64
2021/09/27 11:44:51;;;;;;;17.95;13.40;;;;;;;;;;4931232;28;20089;-61
2021/09/27 11:47:28;;;;;;;19.35;13.25;;;;;;;;;;4930028;28;20028;-62
2021/09/27 11:50:09;;;;;;;18.40;12.60;;;;;;;;;;4931096;28;20024;-61
2021/09/27 11:52:54;;;;;;;16.85;13.02;;;;;;;;;;4933179;28;20028;-65
2021/09/27 11:55:32;;;;;;;18.52;12.40;;;;;;;;;;4933337;28;20094;-62
2021/09/27 11:58:02;;;;;;;18.30;12.95;;;;;;;;;;4932773;28;20036;-64
2021/09/27 12:00:37;;;;;;;18.63;13.38;;;;;;;;;;4933950;29;20102;-65
2021/09/27 12:03:09;;;;;;;18.50;12.93;;;;;;;;;;4932995;28;20032;-62
2021/09/27 12:05:53;;;;;;;18.98;12.85;;;;;;;;;;4932946;28;20028;-60
2021/09/27 12:08:38;;;;;;;18.40;12.77;;;;;;;;;;4933030;28;20027;-63
2021/09/27 12:11:09;;;;;;;18.50;12.07;;;;;;;;;;4591370;28;9999862;-65
2021/09/27 12:13:35;;;;;;;19.55;12.38;;;;;;;;;;4930942;29;20028;-63
2021/09/27 12:16:02;;;;;;;17.55;12.05;;;;;;;;;;4931880;29;20032;-64
2021/09/27 12:18:44;;;;;;;18.65;12.77;;;;;;;;;;4931436;28;20054;-63
2021/09/27 12:21:16;;;;;;;17.48;12.57;;;;;;;;;;4930764;29;20031;-59
2021/09/27 12:23:43;;;;;;;17.52;11.52;;;;;;;;;;4929903;28;20457;-65
2021/09/27 12:26:15;;;;;;;18.40;12.20;;;;;;;;;;4930360;29;20046;-64
2021/09/27 12:28:40;;;;;;;17.75;11.40;;;;;;;;;;4929186;28;20039;-59
2021/09/27 12:31:06;;;;;;;16.60;11.30;;;;;;;;;;4930350;29;20109;-63
2021/09/27 12:33:32;;;;;;;17.23;11.10;;;;;;;;;;4932892;29;20035;-61
2021/09/27 12:36:06;;;;;;;16.92;11.00;;;;;;;;;;4931844;28;20439;-62
2021/09/27 12:38:33;;;;;;;16.48;11.30;;;;;;;;;;4933309;29;20024;-63
2021/09/27 12:41:00;;;;;;;16.73;11.00;;;;;;;;;;4933930;29;20032;-58
2021/09/27 12:43:31;;;;;;;18.55;11.10;;;;;;;;;;4933849;29;20027;-64
2021/09/27 12:46:01;;;;;;;16.67;10.93;;;;;;;;;;4933686;29;20039;-60
2021/09/27 12:48:30;;;;;;;16.60;11.43;;;;;;;;;;4932234;28;20496;-64
2021/09/27 12:51:08;;;;;;;17.50;11.00;;;;;;;;;;4590694;28;10000073;-65
2021/09/27 12:53:41;;;;;;;16.55;11.10;;;;;;;;;;4930725;29;20471;-64
2021/09/27 12:56:08;;;;;;;17.33;11.70;;;;;;;;;;4930217;29;20027;-64
2021/09/27 12:58:39;;;;;;;17.42;10.80;;;;;;;;;;4929476;29;20043;-64
2021/09/27 13:01:07;;;;;;;17.70;11.23;;;;;;;;;;4929880;29;20511;-62
2021/09/27 13:03:33;;;;;;;16.50;10.70;;;;;;;;;;4929503;28;20023;-61
2021/09/27 13:05:59;;;;;;;16.75;10.68;;;;;;;;;;4929156;28;20035;-61
2021/09/27 13:08:27;;;;;;;16.40;11.00;;;;;;;;;;4929594;28;20032;-64
2021/09/27 13:10:54;;;;;;;17.60;10.20;;;;;;;;;;4928960;28;20135;-64
2021/09/27 13:13:34;;;;;;;16.93;10.67;;;;;;;;;;4929312;28;20023;-66
2021/09/27 13:16:02;;;;;;;17.17;10.00;;;;;;;;;;4928719;28;20027;-57
2021/09/27 13:18:35;;;;;;;16.80;10.90;;;;;;;;;;4920874;28;20024;-62
2021/09/27 13:21:13;;;;;;;17.63;10.70;;;;;;;;;;4911466;29;20032;-63
2021/09/27 13:23:45;;;;;;;18.38;11.57;;;;;;;;;;4953626;23;20145;-63
2021/09/27 13:26:17;;;;;;;16.27;11.43;;;;;;;;;;4945373;28;20039;-58
2021/09/27 13:28:48;;;;;;;16.80;11.30;;;;;;;;;;4948270;28;20040;-62
2021/09/27 13:31:17;;;;;;;17.50;10.75;;;;;;;;;;4963114;28;20024;-63
2021/09/27 13:33:48;;;;;;;30.35;13.13;;;;;;;;;;4962964;28;20069;-65
2021/09/27 13:36:35;;;;;;;20.38;11.45;;;;;;;;;;4950711;29;20027;-62
2021/09/27 13:39:04;;;;;;;22.73;12.70;;;;;;;;;;4949102;29;20078;-60
2021/09/27 13:41:40;;;;;;;20.05;12.45;;;;;;;;;;4950242;28;20087;-62
2021/09/27 13:44:06;;;;;;;20.67;12.13;;;;;;;;;;4950658;28;20024;-62
2021/09/27 13:46:32;;;;;;;18.75;13.00;;;;;;;;;;4950561;28;20098;-63
2021/09/27 13:48:59;;;;;;;17.13;11.48;;;;;;;;;;4606870;28;10000290;-62
2021/09/27 13:51:26;;;;;;;16.90;11.95;;;;;;;;;;4945128;28;20039;-63
2021/09/27 13:53:54;;;;;;;17.10;12.27;;;;;;;;;;4946691;28;20133;-62
2021/09/27 13:56:31;;;;;;;18.23;13.33;;;;;;;;;;4947809;28;20085;-62
2021/09/27 13:58:58;;;;;;;20.30;13.13;;;;;;;;;;4945351;29;20323;-63
2021/09/27 14:01:24;;;;;;;17.48;12.65;;;;;;;;;;4946181;28;20031;-62
2021/09/27 14:03:50;;;;;;;19.65;12.63;;;;;;;;;;4945648;28;20103;-62
2021/09/27 14:06:17;;;;;;;15.73;11.27;;;;;;;;;;4945411;28;20463;-59
2021/09/27 14:08:44;;;;;;;18.20;11.68;;;;;;;;;;4947103;28;20038;-61
2021/09/27 14:11:10;;;;;;;18.08;11.73;;;;;;;;;;4949218;28;20023;-59
2021/09/27 14:13:36;;;;;;;16.88;12.10;;;;;;;;;;4948667;28;20035;-61
2021/09/27 14:16:06;;;;;;;17.55;12.00;;;;;;;;;;4949766;28;20054;-63
2021/09/27 14:18:33;;;;;;;18.58;11.85;;;;;;;;;;4949908;29;20027;-62
2021/09/27 14:20:59;;;;;;;17.77;11.68;;;;;;;;;;4950314;29;20065;-61
2021/09/27 14:23:26;;;;;;;19.90;13.73;;;;;;;;;;4949776;28;20055;-62
2021/09/27 14:25:52;;;;;;;20.42;12.10;;;;;;;;;;4933453;28;20039;-61
2021/09/27 14:28:19;;;;;;;17.80;11.63;;;;;;;;;;4595059;28;10000360;-60
2021/09/27 14:30:45;;;;;;;18.23;12.05;;;;;;;;;;4945649;28;20036;-58
2021/09/27 14:33:12;;;;;;;17.40;11.63;;;;;;;;;;4945280;28;20635;-64
2021/09/27 14:35:38;;;;;;;18.80;10.82;;;;;;;;;;4945416;28;20147;-57
2021/09/27 14:38:05;;;;;;;17.17;11.25;;;;;;;;;;4945631;28;20032;-61
2021/09/27 14:40:31;;;;;;;17.85;10.63;;;;;;;;;;4946879;29;20023;-61
2021/09/27 14:42:57;;;;;;;18.50;10.88;;;;;;;;;;4946563;28;20083;-63
2021/09/27 14:45:24;;;;;;;17.25;11.07;;;;;;;;;;4946723;28;20177;-63
2021/09/27 14:47:50;;;;;;;16.42;10.32;;;;;;;;;;4946594;29;20510;-63